createdAt,value
2023-05-09T00:00:47.252Z,7.27
2023-05-09T00:01:47.371Z,7.27
2023-05-09T00:02:47.461Z,7.27
2023-05-09T00:03:47.537Z,7.27
2023-05-09T00:04:47.583Z,7.26
2023-05-09T00:05:47.660Z,7.25
2023-05-09T00:06:47.742Z,7.23
2023-05-09T00:07:47.846Z,7.22
2023-05-09T00:08:47.899Z,7.21
2023-05-09T00:09:47.989Z,7.19
2023-05-09T00:10:48.070Z,7.18
2023-05-09T00:11:48.146Z,7.16
2023-05-09T00:12:48.251Z,7.15
2023-05-09T00:13:48.304Z,7.14
2023-05-09T00:14:48.408Z,7.13
2023-05-09T00:15:48.454Z,7.12
2023-05-09T00:16:48.598Z,7.08
2023-05-09T00:17:48.645Z,7.02
2023-05-09T00:18:48.716Z,6.97
2023-05-09T00:19:48.790Z,6.94
2023-05-09T00:20:48.942Z,6.92
2023-05-09T00:21:48.949Z,6.92
2023-05-09T00:22:49.020Z,6.93
2023-05-09T00:23:49.120Z,6.94
2023-05-09T00:24:49.188Z,6.93
2023-05-09T00:25:49.300Z,6.92
2023-05-09T00:26:49.381Z,6.91
2023-05-09T00:27:49.456Z,6.91
2023-05-09T00:28:49.540Z,6.90
2023-05-09T00:29:49.636Z,6.90
2023-05-09T00:30:49.740Z,6.90
2023-05-09T00:31:49.840Z,6.91
2023-05-09T00:32:49.893Z,6.91
2023-05-09T00:33:49.957Z,6.93
2023-05-09T00:34:50.029Z,6.95
2023-05-09T00:35:50.142Z,6.97
2023-05-09T00:36:50.193Z,6.97
2023-05-09T00:37:50.251Z,6.97
2023-05-09T00:38:50.332Z,6.98
2023-05-09T00:39:50.434Z,6.99
2023-05-09T00:40:50.547Z,7.01
2023-05-09T00:41:50.586Z,7.01
2023-05-09T00:42:50.664Z,7.00
2023-05-09T00:43:50.736Z,6.99
2023-05-09T00:44:50.828Z,6.97
2023-05-09T00:45:50.947Z,6.92
2023-05-09T00:46:50.985Z,6.85
2023-05-09T00:47:51.105Z,6.76
2023-05-09T00:48:51.157Z,6.71
2023-05-09T00:49:51.233Z,6.69
2023-05-09T00:50:51.311Z,6.69
2023-05-09T00:51:51.402Z,6.67
2023-05-09T00:52:51.488Z,6.67
2023-05-09T00:53:51.539Z,6.67
2023-05-09T00:54:51.628Z,6.67
2023-05-09T00:55:51.675Z,6.66
2023-05-09T00:56:51.756Z,6.65
2023-05-09T00:57:51.851Z,6.64
2023-05-09T00:58:51.942Z,6.62
2023-05-09T00:59:52.032Z,6.59
2023-05-09T01:00:52.120Z,6.56
2023-05-09T01:01:52.232Z,6.54
2023-05-09T01:02:52.328Z,6.52
2023-05-09T01:03:52.397Z,6.50
2023-05-09T01:04:52.409Z,6.48
2023-05-09T01:05:52.493Z,6.46
2023-05-09T01:06:52.613Z,6.45
2023-05-09T01:07:52.645Z,6.43
2023-05-09T01:08:52.725Z,6.43
2023-05-09T01:09:52.810Z,6.43
2023-05-09T01:10:52.871Z,6.43
2023-05-09T01:11:52.982Z,6.41
2023-05-09T01:12:53.073Z,6.37
2023-05-09T01:13:53.136Z,6.35
2023-05-09T01:14:53.216Z,6.32
2023-05-09T01:15:53.321Z,6.30
2023-05-09T01:16:53.421Z,6.30
2023-05-09T01:17:53.533Z,6.32
2023-05-09T01:18:53.570Z,6.36
2023-05-09T01:19:53.650Z,6.40
2023-05-09T01:20:53.726Z,6.40
2023-05-09T01:21:53.805Z,6.34
2023-05-09T01:22:53.895Z,6.25
2023-05-09T01:23:53.985Z,6.16
2023-05-09T01:24:54.060Z,6.09
2023-05-09T01:25:54.136Z,6.01
2023-05-09T01:26:54.241Z,5.92
2023-05-09T01:27:54.340Z,5.84
2023-05-09T01:28:54.398Z,5.77
2023-05-09T01:29:55.326Z,5.73
2023-05-09T01:30:54.628Z,5.71
2023-05-09T01:31:54.654Z,5.70
2023-05-09T01:32:54.758Z,5.68
2023-05-09T01:33:54.796Z,5.67
2023-05-09T01:34:54.882Z,5.67
2023-05-09T01:35:54.967Z,5.69
2023-05-09T01:36:55.066Z,5.72
2023-05-09T01:37:55.142Z,5.74
2023-05-09T01:38:55.229Z,5.72
2023-05-09T01:39:55.286Z,5.69
2023-05-09T01:40:55.369Z,5.68
2023-05-09T01:41:55.448Z,5.67
2023-05-09T01:42:55.534Z,5.67
2023-05-09T01:43:55.640Z,5.68
2023-05-09T01:44:55.695Z,5.68
2023-05-09T01:45:55.784Z,5.72
2023-05-09T01:46:55.891Z,5.79
2023-05-09T01:47:55.973Z,5.86
2023-05-09T01:48:56.033Z,5.91
2023-05-09T01:49:56.119Z,5.92
2023-05-09T01:50:56.206Z,5.91
2023-05-09T01:51:56.292Z,5.89
2023-05-09T01:52:56.367Z,5.88
2023-05-09T01:53:56.451Z,5.89
2023-05-09T01:54:56.492Z,5.91
2023-05-09T01:55:56.575Z,5.92
2023-05-09T01:56:56.668Z,5.92
2023-05-09T01:57:56.753Z,5.90
2023-05-09T01:58:56.842Z,5.88
2023-05-09T01:59:56.925Z,5.87
2023-05-09T02:00:57.045Z,5.85
2023-05-09T02:01:57.125Z,5.83
2023-05-09T02:02:57.219Z,5.81
2023-05-09T02:03:57.295Z,5.80
2023-05-09T02:04:57.357Z,5.79
2023-05-09T02:05:57.457Z,5.79
2023-05-09T02:06:57.508Z,5.80
2023-05-09T02:07:57.600Z,5.83
2023-05-09T02:08:57.698Z,5.86
2023-05-09T02:09:57.772Z,5.87
2023-05-09T02:10:57.848Z,5.88
2023-05-09T02:11:57.922Z,5.87
2023-05-09T02:12:58.061Z,5.84
2023-05-09T02:13:58.077Z,5.80
2023-05-09T02:14:58.159Z,5.77
2023-05-09T02:15:58.239Z,5.77
2023-05-09T02:16:58.387Z,5.76
2023-05-09T02:17:58.473Z,5.77
2023-05-09T02:18:58.514Z,5.78
2023-05-09T02:19:58.619Z,5.80
2023-05-09T02:20:58.694Z,5.82
2023-05-09T02:21:58.751Z,5.82
2023-05-09T02:22:58.846Z,5.81
2023-05-09T02:23:58.949Z,5.80
2023-05-09T02:24:59.048Z,5.77
2023-05-09T02:25:59.085Z,5.77
2023-05-09T02:26:59.179Z,5.78
2023-05-09T02:27:59.264Z,5.80
2023-05-09T02:28:59.354Z,5.82
2023-05-09T02:29:59.431Z,5.83
2023-05-09T02:30:59.536Z,5.85
2023-05-09T02:31:59.666Z,5.85
2023-05-09T02:32:59.684Z,5.84
2023-05-09T02:33:59.763Z,5.84
2023-05-09T02:34:59.846Z,5.83
2023-05-09T02:35:59.923Z,5.84
2023-05-09T02:37:00.002Z,5.85
2023-05-09T02:38:00.950Z,5.86
2023-05-09T02:39:00.162Z,5.86
2023-05-09T02:40:00.266Z,5.84
2023-05-09T02:41:00.378Z,5.82
2023-05-09T02:42:00.449Z,5.79
2023-05-09T02:43:00.522Z,5.78
2023-05-09T02:44:00.607Z,5.77
2023-05-09T02:45:00.717Z,5.76
2023-05-09T02:46:00.792Z,5.75
2023-05-09T02:47:00.882Z,5.74
2023-05-09T02:48:00.972Z,5.74
2023-05-09T02:49:01.042Z,5.73
2023-05-09T02:50:01.135Z,5.72
2023-05-09T02:51:01.207Z,5.70
2023-05-09T02:52:01.292Z,5.71
2023-05-09T02:53:01.348Z,5.73
2023-05-09T02:54:01.435Z,5.75
2023-05-09T02:55:01.531Z,5.76
2023-05-09T02:56:01.591Z,5.76
2023-05-09T02:57:01.678Z,5.74
2023-05-09T02:58:12.085Z,5.71
2023-05-09T02:59:01.841Z,5.68
2023-05-09T03:00:01.974Z,5.64
2023-05-09T03:01:02.016Z,5.61
2023-05-09T03:02:02.109Z,5.59
2023-05-09T03:03:02.293Z,5.57
2023-05-09T03:04:02.280Z,5.55
2023-05-09T03:05:02.359Z,5.52
2023-05-09T03:06:02.452Z,5.50
2023-05-09T03:07:02.556Z,5.47
2023-05-09T03:08:02.645Z,5.46
2023-05-09T03:09:02.714Z,5.45
2023-05-09T03:10:02.800Z,5.46
2023-05-09T03:11:02.896Z,5.47
2023-05-09T03:12:02.995Z,5.46
2023-05-09T03:13:03.117Z,5.45
2023-05-09T03:14:03.134Z,5.44
2023-05-09T03:15:03.275Z,5.43
2023-05-09T03:16:03.307Z,5.42
2023-05-09T03:17:03.380Z,5.43
2023-05-09T03:18:03.519Z,5.45
2023-05-09T03:19:03.530Z,5.46
2023-05-09T03:20:04.381Z,5.47
2023-05-09T03:21:03.676Z,5.46
2023-05-09T03:22:03.777Z,5.45
2023-05-09T03:23:03.837Z,5.46
2023-05-09T03:24:03.954Z,5.46
2023-05-09T03:25:04.055Z,5.47
2023-05-09T03:26:04.099Z,5.47
2023-05-09T03:27:04.173Z,5.46
2023-05-09T03:28:04.273Z,5.46
2023-05-09T03:29:04.317Z,5.46
2023-05-09T03:30:04.401Z,5.47
2023-05-09T03:31:04.518Z,5.48
2023-05-09T03:32:04.576Z,5.50
2023-05-09T03:33:04.742Z,5.51
2023-05-09T03:34:04.743Z,5.52
2023-05-09T03:35:04.819Z,5.53
2023-05-09T03:36:04.893Z,5.52
2023-05-09T03:37:05.003Z,5.52
2023-05-09T03:38:05.078Z,5.53
2023-05-09T03:39:05.130Z,5.55
2023-05-09T03:40:05.227Z,5.58
2023-05-09T03:41:05.316Z,5.61
2023-05-09T03:42:05.409Z,5.64
2023-05-09T03:43:05.496Z,5.69
2023-05-09T03:44:05.589Z,5.75
2023-05-09T03:45:05.667Z,5.81
2023-05-09T03:46:05.751Z,5.87
2023-05-09T03:47:05.854Z,5.94
2023-05-09T03:48:05.930Z,5.99
2023-05-09T03:49:06.010Z,6.05
2023-05-09T03:50:06.090Z,6.10
2023-05-09T03:51:06.176Z,6.15
2023-05-09T03:52:06.355Z,6.20
2023-05-09T03:53:06.325Z,6.25
2023-05-09T03:54:06.457Z,6.30
2023-05-09T03:55:06.465Z,6.35
2023-05-09T03:56:06.546Z,6.40
2023-05-09T03:57:06.623Z,6.45
2023-05-09T03:58:06.703Z,6.50
2023-05-09T03:59:06.774Z,6.54
2023-05-09T04:00:06.852Z,6.57
2023-05-09T04:01:06.933Z,6.58
2023-05-09T04:02:07.058Z,6.54
2023-05-09T04:03:07.146Z,6.48
2023-05-09T04:04:07.367Z,6.44
2023-05-09T04:05:07.301Z,6.46
2023-05-09T04:06:07.340Z,6.54
2023-05-09T04:07:07.432Z,6.67
2023-05-09T04:08:07.509Z,6.79
2023-05-09T04:09:07.596Z,6.90
2023-05-09T04:10:07.682Z,7.00
2023-05-09T04:11:07.774Z,7.11
2023-05-09T04:12:07.866Z,7.21
2023-05-09T04:13:07.998Z,7.28
2023-05-09T04:14:08.010Z,7.33
2023-05-09T04:15:08.109Z,7.40
2023-05-09T04:16:08.183Z,7.49
2023-05-09T04:17:08.302Z,7.56
2023-05-09T04:18:08.399Z,7.61
2023-05-09T04:19:08.384Z,7.67
2023-05-09T04:20:08.453Z,7.74
2023-05-09T04:21:08.564Z,7.80
2023-05-09T04:22:08.610Z,7.85
2023-05-09T04:23:08.690Z,7.87
2023-05-09T04:24:08.808Z,7.86
2023-05-09T04:25:08.845Z,7.79
2023-05-09T04:26:08.937Z,7.73
2023-05-09T04:27:09.030Z,7.74
2023-05-09T04:28:09.080Z,7.80
2023-05-09T04:29:09.207Z,7.90
2023-05-09T04:30:09.285Z,8.04
2023-05-09T04:31:09.353Z,8.20
2023-05-09T04:32:09.446Z,8.32
2023-05-09T04:33:09.523Z,8.40
2023-05-09T04:34:09.549Z,8.50
2023-05-09T04:35:09.642Z,8.59
2023-05-09T04:36:09.744Z,8.65
2023-05-09T04:37:09.799Z,8.70
2023-05-09T04:38:09.899Z,8.74
2023-05-09T04:39:09.967Z,8.75
2023-05-09T04:40:10.010Z,8.77
2023-05-09T04:41:10.106Z,8.82
2023-05-09T04:42:10.234Z,8.90
2023-05-09T04:43:10.249Z,8.94
2023-05-09T04:44:10.350Z,8.95
2023-05-09T04:45:10.414Z,8.97
2023-05-09T04:46:10.507Z,9.03
2023-05-09T04:47:10.546Z,9.10
2023-05-09T04:48:10.644Z,9.16
2023-05-09T04:49:10.687Z,9.18
2023-05-09T04:50:10.780Z,9.17
2023-05-09T04:51:10.895Z,9.20
2023-05-09T04:52:10.948Z,9.28
2023-05-09T04:53:11.048Z,9.40
2023-05-09T04:54:11.164Z,9.54
2023-05-09T04:55:11.219Z,9.64
2023-05-09T04:56:11.314Z,9.69
2023-05-09T04:57:17.867Z,9.70
2023-05-09T04:58:11.512Z,9.70
2023-05-09T04:59:11.549Z,9.69
2023-05-09T05:00:11.658Z,9.68
2023-05-09T05:01:11.768Z,9.62
2023-05-09T05:02:11.795Z,9.61
2023-05-09T05:03:11.900Z,9.66
2023-05-09T05:04:11.979Z,9.73
2023-05-09T05:05:12.733Z,9.79
2023-05-09T05:06:12.135Z,9.86
2023-05-09T05:07:12.233Z,9.94
2023-05-09T05:08:12.323Z,10.02
2023-05-09T05:09:12.415Z,10.07
2023-05-09T05:10:12.512Z,10.10
2023-05-09T05:11:12.586Z,10.13
2023-05-09T05:12:12.663Z,10.11
2023-05-09T05:13:12.819Z,10.10
2023-05-09T05:14:12.872Z,10.12
2023-05-09T05:15:13.111Z,10.14
2023-05-09T05:16:13.029Z,10.17
2023-05-09T05:17:13.086Z,10.14
2023-05-09T05:18:13.177Z,10.14
2023-05-09T05:19:13.285Z,10.23
2023-05-09T05:20:13.340Z,10.31
2023-05-09T05:21:13.422Z,10.35
2023-05-09T05:22:13.510Z,10.40
2023-05-09T05:23:13.564Z,10.48
2023-05-09T05:24:13.656Z,10.60
2023-05-09T05:25:13.959Z,10.68
2023-05-09T05:26:13.822Z,10.75
2023-05-09T05:27:13.928Z,10.82
2023-05-09T05:28:14.014Z,10.85
2023-05-09T05:29:14.100Z,10.83
2023-05-09T05:30:14.222Z,10.83
2023-05-09T05:31:14.320Z,10.79
2023-05-09T05:32:14.353Z,10.80
2023-05-09T05:33:14.435Z,10.91
2023-05-09T05:34:14.518Z,10.97
2023-05-09T05:35:14.996Z,10.98
2023-05-09T05:36:14.699Z,11.01
2023-05-09T05:37:14.790Z,11.06
2023-05-09T05:38:14.879Z,11.14
2023-05-09T05:39:14.958Z,11.24
2023-05-09T05:40:15.076Z,11.30
2023-05-09T05:41:15.129Z,11.27
2023-05-09T05:42:15.213Z,11.24
2023-05-09T05:43:15.308Z,11.18
2023-05-09T05:44:15.404Z,11.11
2023-05-09T05:45:15.765Z,10.99
2023-05-09T05:46:15.611Z,10.97
2023-05-09T05:47:22.205Z,11.04
2023-05-09T05:48:16.762Z,11.06
2023-05-09T05:49:16.428Z,11.15
2023-05-09T05:50:18.480Z,11.30
2023-05-09T05:51:16.064Z,11.42
2023-05-09T05:52:16.041Z,11.53
2023-05-09T05:53:16.101Z,11.63
2023-05-09T05:54:16.155Z,11.74
2023-05-09T05:55:16.516Z,11.83
2023-05-09T05:56:16.323Z,11.87
2023-05-09T05:57:16.473Z,11.93
2023-05-09T05:58:16.517Z,12.02
2023-05-09T05:59:16.586Z,12.10
2023-05-09T06:00:16.697Z,12.10
2023-05-09T06:01:17.179Z,12.07
2023-05-09T06:02:16.898Z,12.09
2023-05-09T06:03:17.152Z,12.16
2023-05-09T06:04:17.080Z,12.26
2023-05-09T06:05:17.251Z,12.38
2023-05-09T06:06:17.231Z,12.55
2023-05-09T06:07:17.279Z,12.77
2023-05-09T06:08:17.368Z,12.91
2023-05-09T06:09:17.483Z,12.88
2023-05-09T06:10:17.549Z,12.72
2023-05-09T06:11:17.644Z,12.57
2023-05-09T06:12:17.743Z,12.51
2023-05-09T06:13:17.852Z,12.53
2023-05-09T06:14:17.926Z,12.65
2023-05-09T06:15:18.062Z,12.74
2023-05-09T06:16:20.087Z,12.82
2023-05-09T06:17:18.186Z,12.89
2023-05-09T06:18:18.221Z,12.96
2023-05-09T06:19:18.322Z,13.05
2023-05-09T06:20:18.400Z,13.14
2023-05-09T06:21:18.508Z,13.18
2023-05-09T06:22:18.561Z,13.20
2023-05-09T06:23:18.656Z,13.26
2023-05-09T06:24:31.643Z,13.38
2023-05-09T06:25:18.835Z,13.59
2023-05-09T06:26:18.934Z,13.79
2023-05-09T06:27:19.027Z,14.02
2023-05-09T06:28:19.079Z,14.24
2023-05-09T06:29:19.181Z,14.29
2023-05-09T06:30:26.306Z,14.28
2023-05-09T06:31:20.147Z,14.23
2023-05-09T06:32:19.413Z,14.12
2023-05-09T06:33:19.508Z,14.06
2023-05-09T06:34:19.567Z,14.12
2023-05-09T06:35:19.667Z,14.25
2023-05-09T06:36:19.781Z,14.46
2023-05-09T06:37:19.855Z,14.68
2023-05-09T06:38:19.921Z,14.87
2023-05-09T06:39:19.976Z,15.04
2023-05-09T06:40:20.082Z,15.16
2023-05-09T06:41:20.155Z,15.16
2023-05-09T06:42:20.238Z,15.04
2023-05-09T06:43:20.290Z,14.93
2023-05-09T06:44:20.395Z,14.86
2023-05-09T06:45:20.747Z,14.84
2023-05-09T06:46:20.591Z,14.92
2023-05-09T06:47:20.628Z,15.08
2023-05-09T06:48:20.737Z,15.20
2023-05-09T06:49:20.803Z,15.25
2023-05-09T06:50:20.851Z,15.17
2023-05-09T06:51:20.956Z,15.08
2023-05-09T06:52:21.006Z,15.07
2023-05-09T06:53:21.124Z,15.13
2023-05-09T06:54:21.179Z,15.20
2023-05-09T06:55:21.273Z,15.24
2023-05-09T06:56:21.371Z,15.28
2023-05-09T06:57:21.453Z,15.39
2023-05-09T06:58:21.528Z,15.53
2023-05-09T06:59:21.581Z,15.60
2023-05-09T07:00:21.674Z,15.66
2023-05-09T07:01:21.799Z,15.80
2023-05-09T07:02:21.903Z,15.93
2023-05-09T07:03:21.952Z,15.91
2023-05-09T07:04:22.059Z,15.77
2023-05-09T07:05:22.178Z,15.62
2023-05-09T07:06:22.199Z,15.54
2023-05-09T07:07:22.288Z,15.46
2023-05-09T07:08:22.378Z,15.33
2023-05-09T07:09:22.471Z,15.30
2023-05-09T07:10:22.556Z,15.37
2023-05-09T07:11:22.653Z,15.50
2023-05-09T07:12:22.746Z,15.66
2023-05-09T07:13:23.076Z,15.74
2023-05-09T07:14:22.969Z,15.86
2023-05-09T07:15:36.756Z,16.05
2023-05-09T07:16:23.195Z,16.20
2023-05-09T07:17:24.185Z,16.23
2023-05-09T07:18:23.261Z,16.26
2023-05-09T07:19:23.356Z,16.31
2023-05-09T07:20:23.446Z,16.25
2023-05-09T07:21:23.539Z,16.12
2023-05-09T07:22:23.662Z,15.97
2023-05-09T07:23:23.730Z,15.81
2023-05-09T07:24:23.794Z,15.81
2023-05-09T07:25:24.084Z,15.93
2023-05-09T07:26:23.977Z,16.13
2023-05-09T07:27:24.073Z,16.35
2023-05-09T07:28:24.205Z,16.39
2023-05-09T07:29:24.252Z,16.30
2023-05-09T07:30:24.342Z,16.30
2023-05-09T07:31:24.447Z,16.43
2023-05-09T07:32:24.519Z,16.56
2023-05-09T07:33:24.596Z,16.69
2023-05-09T07:34:24.688Z,16.84
2023-05-09T07:35:24.804Z,17.00
2023-05-09T07:36:24.847Z,17.17
2023-05-09T07:37:24.930Z,17.34
2023-05-09T07:38:25.024Z,17.45
2023-05-09T07:39:25.120Z,17.49
2023-05-09T07:40:25.217Z,17.44
2023-05-09T07:41:25.281Z,17.39
2023-05-09T07:42:25.401Z,17.39
2023-05-09T07:43:25.434Z,17.38
2023-05-09T07:44:25.483Z,17.34
2023-05-09T07:45:26.524Z,17.26
2023-05-09T07:46:25.721Z,17.25
2023-05-09T07:47:25.763Z,17.34
2023-05-09T07:48:25.795Z,17.37
2023-05-09T07:49:25.899Z,17.41
2023-05-09T07:50:25.979Z,17.51
2023-05-09T07:51:26.016Z,17.59
2023-05-09T07:52:26.089Z,17.60
2023-05-09T07:53:26.156Z,17.51
2023-05-09T07:54:26.209Z,17.38
2023-05-09T07:55:26.300Z,17.28
2023-05-09T07:56:26.376Z,17.25
2023-05-09T07:57:26.433Z,17.31
2023-05-09T07:58:26.528Z,17.42
2023-05-09T07:59:26.622Z,17.54
2023-05-09T08:00:26.721Z,17.62
2023-05-09T08:01:26.800Z,17.69
2023-05-09T08:02:26.934Z,17.72
2023-05-09T08:03:26.966Z,17.74
2023-05-09T08:04:27.130Z,17.81
2023-05-09T08:05:27.123Z,17.96
2023-05-09T08:06:27.195Z,18.08
2023-05-09T08:07:27.255Z,18.08
2023-05-09T08:08:27.334Z,18.03
2023-05-09T08:09:27.390Z,17.96
2023-05-09T08:10:27.467Z,17.92
2023-05-09T08:11:27.595Z,17.96
2023-05-09T08:12:27.640Z,18.00
2023-05-09T08:13:27.888Z,17.96
2023-05-09T08:14:27.833Z,17.96
2023-05-09T08:15:27.880Z,18.04
2023-05-09T08:16:27.997Z,18.18
2023-05-09T08:17:28.080Z,18.34
2023-05-09T08:18:28.110Z,18.50
2023-05-09T08:19:28.245Z,18.61
2023-05-09T08:20:28.286Z,18.60
2023-05-09T08:21:28.365Z,18.45
2023-05-09T08:22:28.427Z,18.30
2023-05-09T08:23:28.540Z,18.22
2023-05-09T08:24:28.583Z,18.15
2023-05-09T08:25:28.682Z,18.20
2023-05-09T08:26:28.769Z,18.39
2023-05-09T08:27:28.853Z,18.56
2023-05-09T08:28:28.909Z,18.70
2023-05-09T08:29:29.014Z,18.79
2023-05-09T08:30:29.096Z,18.87
2023-05-09T08:31:29.206Z,18.89
2023-05-09T08:32:29.347Z,18.85
2023-05-09T08:33:29.290Z,18.85
2023-05-09T08:34:29.384Z,18.95
2023-05-09T08:35:29.486Z,19.05
2023-05-09T08:36:29.538Z,19.11
2023-05-09T08:37:29.606Z,19.09
2023-05-09T08:38:29.750Z,19.13
2023-05-09T08:39:29.733Z,19.24
2023-05-09T08:40:29.828Z,19.21
2023-05-09T08:41:29.896Z,19.01
2023-05-09T08:42:29.949Z,18.78
2023-05-09T08:43:30.010Z,18.58
2023-05-09T08:44:30.118Z,18.46
2023-05-09T08:45:30.182Z,18.43
2023-05-09T08:46:30.331Z,18.42
2023-05-09T08:47:30.365Z,18.41
2023-05-09T08:48:30.403Z,18.40
2023-05-09T08:49:30.493Z,18.55
2023-05-09T08:50:30.642Z,18.85
2023-05-09T08:51:30.687Z,19.11
2023-05-09T08:52:30.773Z,19.33
2023-05-09T08:53:30.894Z,19.62
2023-05-09T08:54:31.016Z,19.86
2023-05-09T08:55:31.008Z,19.93
2023-05-09T08:56:31.095Z,19.81
2023-05-09T08:57:31.194Z,19.66
2023-05-09T08:58:31.306Z,19.50
2023-05-09T08:59:31.351Z,19.50
2023-05-09T09:00:31.459Z,19.63
2023-05-09T09:01:31.525Z,19.66
2023-05-09T09:02:31.605Z,19.61
2023-05-09T09:03:31.631Z,19.64
2023-05-09T09:04:31.769Z,19.64
2023-05-09T09:05:41.251Z,19.56
2023-05-09T09:06:31.936Z,19.54
2023-05-09T09:07:31.976Z,19.68
2023-05-09T09:08:32.083Z,19.75
2023-05-09T09:09:32.136Z,19.77
2023-05-09T09:10:32.238Z,19.86
2023-05-09T09:11:32.304Z,19.99
2023-05-09T09:12:32.432Z,20.08
2023-05-09T09:17:15.336Z,20.80
2023-05-09T09:18:14.266Z,20.43
2023-05-09T09:19:14.336Z,20.29
2023-05-09T09:20:14.591Z,20.20
2023-05-09T09:21:14.544Z,20.10
2023-05-09T09:22:14.590Z,20.01
2023-05-09T09:23:14.654Z,20.00
2023-05-09T09:24:14.786Z,20.07
2023-05-09T09:25:14.841Z,20.25
2023-05-09T09:26:14.895Z,20.34
2023-05-09T09:27:15.109Z,20.26
2023-05-09T09:28:15.045Z,20.11
2023-05-09T09:29:15.116Z,19.99
2023-05-09T09:30:15.349Z,19.97
2023-05-09T09:31:17.133Z,20.02
2023-05-09T09:32:15.328Z,20.05
2023-05-09T09:33:15.443Z,20.01
2023-05-09T09:34:15.483Z,19.89
2023-05-09T09:35:15.584Z,19.78
2023-05-09T09:36:15.644Z,19.84
2023-05-09T09:37:15.763Z,19.98
2023-05-09T09:38:15.846Z,20.03
2023-05-09T09:39:15.928Z,19.98
2023-05-09T09:40:16.288Z,19.97
2023-05-09T09:41:16.907Z,19.99
2023-05-09T09:42:16.115Z,19.96
2023-05-09T09:43:16.171Z,19.88
2023-05-09T09:44:16.226Z,19.85
2023-05-09T09:45:16.323Z,19.93
2023-05-09T09:46:16.461Z,20.12
2023-05-09T09:47:16.513Z,20.29
2023-05-09T09:48:16.555Z,20.43
2023-05-09T09:49:16.636Z,20.50
2023-05-09T09:50:16.910Z,20.48
2023-05-09T09:51:16.830Z,20.39
2023-05-09T09:52:16.885Z,20.36
2023-05-09T09:53:16.979Z,20.52
2023-05-09T09:54:17.050Z,20.77
2023-05-09T09:55:17.124Z,20.76
2023-05-09T09:56:17.198Z,20.50
2023-05-09T09:57:17.270Z,20.30
2023-05-09T09:58:17.331Z,20.28
2023-05-09T09:59:17.426Z,20.47
2023-05-09T10:00:17.802Z,20.84
2023-05-09T10:01:17.573Z,21.15
2023-05-09T10:02:17.654Z,21.38
2023-05-09T10:03:17.847Z,21.44
2023-05-09T10:04:17.829Z,21.47
2023-05-09T10:05:17.870Z,21.59
2023-05-09T10:06:18.009Z,21.72
2023-05-09T10:07:18.070Z,21.72
2023-05-09T10:08:18.291Z,21.56
2023-05-09T10:09:18.233Z,21.30
2023-05-09T10:10:18.351Z,21.00
2023-05-09T10:11:18.391Z,20.78
2023-05-09T10:12:18.456Z,20.70
2023-05-09T10:13:18.564Z,20.72
2023-05-09T10:14:18.601Z,20.83
2023-05-09T10:15:18.681Z,20.93
2023-05-09T10:16:23.288Z,20.94
2023-05-09T10:17:18.952Z,20.90
2023-05-09T10:18:19.171Z,20.78
2023-05-09T10:19:19.012Z,20.58
2023-05-09T10:20:19.144Z,20.52
2023-05-09T10:21:19.182Z,20.65
2023-05-09T10:22:19.553Z,20.83
2023-05-09T10:23:19.343Z,21.08
2023-05-09T10:24:19.435Z,21.37
2023-05-09T10:25:19.555Z,21.64
2023-05-09T10:26:19.584Z,21.81
2023-05-09T10:27:19.710Z,21.79
2023-05-09T10:28:19.740Z,21.74
2023-05-09T10:29:19.838Z,21.70
2023-05-09T10:30:19.898Z,21.80
2023-05-09T10:31:20.074Z,21.83
2023-05-09T10:32:20.098Z,21.77
2023-05-09T10:33:20.167Z,21.73
2023-05-09T10:34:20.219Z,21.62
2023-05-09T10:35:20.331Z,21.55
2023-05-09T10:36:20.435Z,21.56
2023-05-09T10:37:20.458Z,21.63
2023-05-09T10:38:20.560Z,21.67
2023-05-09T10:39:20.605Z,21.62
2023-05-09T10:40:20.707Z,21.63
2023-05-09T10:41:20.801Z,21.80
2023-05-09T10:42:20.899Z,22.04
2023-05-09T10:43:21.018Z,22.24
2023-05-09T10:44:21.092Z,22.42
2023-05-09T10:45:21.144Z,22.58
2023-05-09T10:46:21.226Z,22.63
2023-05-09T10:47:21.347Z,22.54
2023-05-09T10:48:21.384Z,22.33
2023-05-09T10:49:21.488Z,22.05
2023-05-09T10:50:21.606Z,21.81
2023-05-09T10:51:21.638Z,21.68
2023-05-09T10:52:21.673Z,21.68
2023-05-09T10:53:21.875Z,21.88
2023-05-09T10:54:21.846Z,22.23
2023-05-09T10:55:21.938Z,22.62
2023-05-09T10:56:22.272Z,23.03
2023-05-09T10:57:22.096Z,23.24
2023-05-09T10:58:22.195Z,23.23
2023-05-09T10:59:22.302Z,23.07
2023-05-09T11:00:22.361Z,22.92
2023-05-09T11:01:22.491Z,22.77
2023-05-09T11:02:22.637Z,22.61
2023-05-09T11:03:22.735Z,22.53
2023-05-09T11:04:22.719Z,22.53
2023-05-09T11:05:22.802Z,22.52
2023-05-09T11:06:22.854Z,22.61
2023-05-09T11:07:22.953Z,22.78
2023-05-09T11:08:23.085Z,22.99
2023-05-09T11:09:23.136Z,23.08
2023-05-09T11:10:23.181Z,23.08
2023-05-09T11:11:23.257Z,23.11
2023-05-09T11:12:23.311Z,23.05
2023-05-09T11:13:23.498Z,22.94
2023-05-09T11:14:23.547Z,22.92
2023-05-09T11:15:23.578Z,23.03
2023-05-09T11:16:23.727Z,23.20
2023-05-09T11:17:23.840Z,23.31
2023-05-09T11:18:23.842Z,23.39
2023-05-09T11:19:23.927Z,23.32
2023-05-09T11:20:24.051Z,23.16
2023-05-09T11:21:24.096Z,23.25
2023-05-09T11:22:24.166Z,23.52
2023-05-09T11:23:24.278Z,23.79
2023-05-09T11:24:24.329Z,23.97
2023-05-09T11:25:24.419Z,24.06
2023-05-09T11:26:24.545Z,24.20
2023-05-09T11:27:24.609Z,24.24
2023-05-09T11:28:24.685Z,24.23
2023-05-09T11:29:25.303Z,24.23
2023-05-09T11:30:24.851Z,24.13
2023-05-09T11:31:24.985Z,23.87
2023-05-09T11:32:25.004Z,23.68
2023-05-09T11:33:25.094Z,23.61
2023-05-09T11:34:25.195Z,23.50
2023-05-09T11:35:25.281Z,23.30
2023-05-09T11:36:25.331Z,23.09
2023-05-09T11:37:25.449Z,22.88
2023-05-09T11:38:25.529Z,22.66
2023-05-09T11:39:25.620Z,22.60
2023-05-09T11:40:25.710Z,22.75
2023-05-09T11:41:25.786Z,23.03
2023-05-09T11:42:25.849Z,23.26
2023-05-09T11:43:25.917Z,23.28
2023-05-09T11:44:25.967Z,23.19
2023-05-09T11:45:26.080Z,23.23
2023-05-09T11:46:26.201Z,23.32
2023-05-09T11:47:26.281Z,23.43
2023-05-09T11:48:26.319Z,23.69
2023-05-09T11:49:26.404Z,23.86
2023-05-09T11:50:26.504Z,23.85
2023-05-09T11:51:26.579Z,23.82
2023-05-09T11:52:26.646Z,23.88
2023-05-09T11:53:26.716Z,23.99
2023-05-09T11:54:26.783Z,24.08
2023-05-09T11:55:26.836Z,24.02
2023-05-09T11:56:26.947Z,23.85
2023-05-09T11:57:27.004Z,23.80
2023-05-09T11:58:27.170Z,24.01
2023-05-09T11:59:27.782Z,24.33
2023-05-09T12:00:27.285Z,24.56
2023-05-09T12:01:27.354Z,24.60
2023-05-09T12:02:27.510Z,24.40
2023-05-09T12:03:27.727Z,24.09
2023-05-09T12:04:27.652Z,23.88
2023-05-09T12:05:27.688Z,23.83
2023-05-09T12:06:28.717Z,23.82
2023-05-09T12:07:27.828Z,23.87
2023-05-09T12:08:27.971Z,24.00
2023-05-09T12:09:28.001Z,24.08
2023-05-09T12:10:28.089Z,24.02
2023-05-09T12:11:28.182Z,23.88
2023-05-09T12:12:28.285Z,23.79
2023-05-09T12:13:28.511Z,23.82
2023-05-09T12:14:28.474Z,23.85
2023-05-09T12:15:28.519Z,23.89
2023-05-09T12:16:28.655Z,23.87
2023-05-09T12:17:28.755Z,23.80
2023-05-09T12:18:28.815Z,23.77
2023-05-09T12:19:28.868Z,23.77
2023-05-09T12:20:28.959Z,23.79
2023-05-09T12:21:29.050Z,23.74
2023-05-09T12:22:29.180Z,23.72
2023-05-09T12:23:29.252Z,23.66
2023-05-09T12:24:29.311Z,23.61
2023-05-09T12:25:29.421Z,23.69
2023-05-09T12:26:30.245Z,23.83
2023-05-09T12:27:29.604Z,24.00
2023-05-09T12:28:29.645Z,24.20
2023-05-09T12:29:29.712Z,24.33
2023-05-09T12:30:29.763Z,24.42
2023-05-09T12:31:29.891Z,24.50
2023-05-09T12:32:29.945Z,24.48
2023-05-09T12:33:30.002Z,24.36
2023-05-09T12:34:30.090Z,24.26
2023-05-09T12:35:30.198Z,24.05
2023-05-09T12:36:30.265Z,23.70
2023-05-09T12:37:30.314Z,23.28
2023-05-09T12:38:30.410Z,23.12
2023-05-09T12:39:30.479Z,23.21
2023-05-09T12:40:30.545Z,23.23
2023-05-09T12:41:39.143Z,23.15
2023-05-09T12:42:30.768Z,23.12
2023-05-09T12:43:30.784Z,23.22
2023-05-09T12:44:30.865Z,23.54
2023-05-09T12:45:30.935Z,23.78
2023-05-09T12:46:31.881Z,23.84
2023-05-09T12:47:31.139Z,23.96
2023-05-09T12:48:31.188Z,24.08
2023-05-09T12:49:31.247Z,24.05
2023-05-09T12:50:31.335Z,23.95
2023-05-09T12:51:31.453Z,23.79
2023-05-09T12:52:31.491Z,23.76
2023-05-09T12:53:31.580Z,23.83
2023-05-09T12:54:31.633Z,23.86
2023-05-09T12:55:31.812Z,23.84
2023-05-09T12:56:31.799Z,23.90
2023-05-09T12:57:31.894Z,24.01
2023-05-09T12:58:32.006Z,23.91
2023-05-09T12:59:32.082Z,23.74
2023-05-09T13:00:32.189Z,23.81
2023-05-09T13:01:32.256Z,24.08
2023-05-09T13:02:32.393Z,24.26
2023-05-09T13:03:32.411Z,24.12
2023-05-09T13:04:32.472Z,23.89
2023-05-09T13:05:32.561Z,23.76
2023-05-09T13:06:32.669Z,23.69
2023-05-09T13:07:32.752Z,23.70